»·PEaware :: N360BG KYKM-KMFR

N360BG :: KYKM-KMFR

FLIGHT INFORMATION

Flight Status: Arrived
Operator: Privately registered:
United States
More flights under this callsign
Pilot: Brandon G. (13)
Aircraft: Unknown
(EPIC)
More flights by this aircraft type
Origin: KYKM Yakima Air Term/Mcallister
United States
Destination: KMFR Rogue Valley Intl-Medford
United States
More flights between these airports :: More routes between these airports
Route: NACHES4 LTJ OED
File this flight plan on PilotEdge
Remarks:
Altitude:
(Current/Filed)
24,000ft
Speed:
(Current/Filed)
425kts
Departed: 09-Jan-18 08:27 PM
Arrived: 09-Jan-18 09:38 PM
Distance/Time
Traveled:
271nm/1:11
Distance/Time
To Go:
Arrived

Flight Plot

Page will automatically refresh every two minutes.

Flight plan parsing failed; only flown route is shown


Map Options




Map Legend


Flown Route
Filed Route
Departure Airport
Arrival Airport
Navaid (VOR, NDB)
Fix

Horizontal Profiles

Position Reports

Time Latitude Longitude Heading Altitude Ground
Speed
09-Jan-18 19:53 46.572662 -120.552884 288 1086ft 0kts
09-Jan-18 19:54 46.572662 -120.552884 288 1086ft 0kts
09-Jan-18 19:55 46.572662 -120.552884 288 1086ft 0kts
09-Jan-18 19:56 46.572662 -120.552884 288 1086ft 0kts
09-Jan-18 19:57 46.572662 -120.552884 288 1086ft 0kts
09-Jan-18 19:58 46.572662 -120.552884 288 1086ft 0kts
09-Jan-18 19:59 46.572662 -120.552884 288 1086ft 0kts
09-Jan-18 20:00 46.572662 -120.552884 288 1086ft 0kts
09-Jan-18 20:01 46.572662 -120.552884 288 1086ft 0kts
09-Jan-18 20:02 46.572662 -120.552884 288 1086ft 0kts
09-Jan-18 20:03 46.572662 -120.552884 288 1086ft 0kts
09-Jan-18 20:04 46.572662 -120.552884 288 1086ft 0kts
09-Jan-18 20:05 46.572662 -120.552884 288 1086ft 0kts
09-Jan-18 20:06 46.572662 -120.552884 288 1086ft 0kts
09-Jan-18 20:07 46.572662 -120.552884 288 1086ft 0kts
09-Jan-18 20:08 46.572662 -120.552884 288 1086ft 0kts
09-Jan-18 20:09 46.572662 -120.552884 288 1086ft 0kts
09-Jan-18 20:10 46.572662 -120.552884 288 1086ft 0kts
09-Jan-18 20:11 46.572675 -120.552939 288 1086ft 0kts
09-Jan-18 20:12 46.572605 -120.553527 191 1087ft 0kts
09-Jan-18 20:13 46.572605 -120.553527 191 1087ft 0kts
09-Jan-18 20:14 46.572604 -120.553527 190 1087ft 0kts
09-Jan-18 20:15 46.572604 -120.553527 190 1087ft 0kts
09-Jan-18 20:16 46.572605 -120.553527 190 1087ft 0kts
09-Jan-18 20:17 46.572605 -120.553527 190 1087ft 0kts
09-Jan-18 20:18 46.572605 -120.553527 190 1087ft 0kts
09-Jan-18 20:19 46.572604 -120.553527 190 1087ft 0kts
09-Jan-18 20:20 46.572604 -120.553527 190 1087ft 0kts
09-Jan-18 20:21 46.572604 -120.553527 190 1087ft 0kts
09-Jan-18 20:22 46.572604 -120.553527 190 1087ft 0kts
09-Jan-18 20:23 46.572604 -120.553527 190 1087ft 0kts
09-Jan-18 20:24 46.572601 -120.553528 190 1087ft 0kts
09-Jan-18 20:25 46.572244 -120.553550 140 1087ft 12kts
09-Jan-18 20:26 46.570681 -120.547395 107 1075ft 15kts
09-Jan-18 20:27 46.568674 -120.539378 111 1062ft 20kts
09-Jan-18 20:28 46.566601 -120.531485 144 1047ft 12kts
09-Jan-18 20:29 46.566540 -120.531446 168 1047ft 0kts
09-Jan-18 20:30 46.566540 -120.531446 168 1047ft 0kts
09-Jan-18 20:31 46.566392 -120.531501 186 1047ft 0kts
09-Jan-18 20:32 46.566392 -120.531501 186 1047ft 0kts
09-Jan-18 20:33 46.570906 -120.551103 304 1424ft 135kts
09-Jan-18 20:34 46.607020 -120.578866 334 4137ft 150kts
09-Jan-18 20:35 46.653349 -120.610074 334 5544ft 206kts
09-Jan-18 20:36 46.705094 -120.643679 334 7394ft 208kts
09-Jan-18 20:37 46.736740 -120.705357 284 8988ft 208kts
09-Jan-18 20:38 46.716621 -120.767900 177 10008ft 249kts
09-Jan-18 20:39 46.646395 -120.785190 197 10002ft 269kts
09-Jan-18 20:40 46.584382 -120.806704 198 11969ft 227kts
09-Jan-18 20:41 46.522870 -120.827850 198 12943ft 230kts
09-Jan-18 20:42 46.460196 -120.849246 199 14517ft 231kts
09-Jan-18 20:43 46.396989 -120.870850 199 15812ft 240kts
09-Jan-18 20:44 46.331950 -120.892994 199 17020ft 245kts
09-Jan-18 20:45 46.271073 -120.913602 200 18857ft 227kts
09-Jan-18 20:46 46.210046 -120.934295 201 20064ft 232kts
09-Jan-18 20:47 46.148695 -120.955005 201 21298ft 230kts
09-Jan-18 20:48 46.086854 -120.975857 202 22284ft 235kts
09-Jan-18 20:49 46.024085 -120.996965 202 23161ft 238kts
09-Jan-18 20:50 45.963055 -121.017467 203 23841ft 244kts
09-Jan-18 20:51 45.897469 -121.039502 202 23864ft 282kts
09-Jan-18 20:52 45.824255 -121.063912 202 23862ft 298kts
09-Jan-18 20:53 45.744972 -121.090291 202 23860ft 305kts
09-Jan-18 20:54 45.668800 -121.127259 211 23860ft 301kts
09-Jan-18 20:55 45.593459 -121.171974 212 23859ft 303kts
09-Jan-18 20:56 45.517682 -121.216795 212 23859ft 304kts
09-Jan-18 20:57 45.441664 -121.261614 212 23860ft 304kts
09-Jan-18 20:58 45.365068 -121.306646 212 23858ft 304kts
09-Jan-18 20:59 45.289019 -121.351211 212 23858ft 304kts
09-Jan-18 21:00 45.212449 -121.395951 212 23857ft 304kts
09-Jan-18 21:01 45.136166 -121.440400 212 23858ft 304kts
09-Jan-18 21:02 45.059928 -121.484644 213 23860ft 305kts
09-Jan-18 21:03 44.983919 -121.528649 215 23859ft 306kts
09-Jan-18 21:04 44.907107 -121.573074 214 23855ft 308kts
09-Jan-18 21:05 44.837175 -121.613355 215 23840ft 308kts
09-Jan-18 21:06 44.761871 -121.656609 214 23844ft 309kts
09-Jan-18 21:07 44.683980 -121.701235 214 23844ft 310kts
09-Jan-18 21:08 44.606009 -121.745770 214 23847ft 311kts
09-Jan-18 21:09 44.527643 -121.790390 214 23845ft 312kts
09-Jan-18 21:10 44.448788 -121.835161 214 23851ft 311kts
09-Jan-18 21:11 44.370162 -121.879669 214 23863ft 311kts
09-Jan-18 21:12 44.292213 -121.923668 214 23874ft 311kts
09-Jan-18 21:13 44.213676 -121.967889 214 23874ft 311kts
09-Jan-18 21:14 44.134897 -122.012100 214 23872ft 311kts
09-Jan-18 21:15 44.056113 -122.056189 214 23875ft 311kts
09-Jan-18 21:16 43.977660 -122.099978 214 23873ft 311kts
09-Jan-18 21:17 43.899632 -122.143393 214 23875ft 312kts
09-Jan-18 21:18 43.824786 -122.184914 214 23875ft 310kts
09-Jan-18 21:19 43.747108 -122.227916 214 23894ft 310kts
09-Jan-18 21:20 43.673316 -122.268634 214 23926ft 309kts
09-Jan-18 21:21 43.596060 -122.311139 214 23945ft 309kts
09-Jan-18 21:22 43.518504 -122.353708 214 23961ft 309kts
09-Jan-18 21:23 43.440630 -122.396338 214 23981ft 309kts
09-Jan-18 21:24 43.376076 -122.431579 214 23986ft 309kts
09-Jan-18 21:25 43.284818 -122.481386 213 23282ft 331kts
09-Jan-18 21:26 43.198571 -122.528254 211 20719ft 354kts
09-Jan-18 21:27 43.126519 -122.567202 210 18948ft 343kts
09-Jan-18 21:28 43.042867 -122.612334 210 16928ft 330kts
09-Jan-18 21:29 42.950192 -122.662238 207 14492ft 318kts
09-Jan-18 21:30 42.888774 -122.695205 205 12785ft 313kts
09-Jan-18 21:31 42.812547 -122.735919 205 11974ft 297kts
09-Jan-18 21:32 42.759330 -122.805810 254 11151ft 292kts
09-Jan-18 21:33 42.735875 -122.900514 254 10149ft 253kts
09-Jan-18 21:34 42.713211 -122.986917 254 9155ft 245kts
09-Jan-18 21:35 42.674274 -123.047188 174 8202ft 261kts
09-Jan-18 21:36 42.616137 -123.002766 153 7221ft 234kts
09-Jan-18 21:37 42.566987 -122.974548 155 6117ft 161kts
09-Jan-18 21:38 42.531934 -122.955856 155 4506ft 128kts
09-Jan-18 21:39 42.501471 -122.939649 154 3774ft 115kts
09-Jan-18 21:40 42.472522 -122.924384 154 3161ft 112kts
09-Jan-18 21:41 42.443869 -122.909343 155 2554ft 110kts
09-Jan-18 21:42 42.415873 -122.894694 156 1978ft 103kts
09-Jan-18 21:43 42.391089 -122.881688 154 1441ft 94kts
09-Jan-18 21:44 42.376133 -122.874825 259 1307ft 9kts
09-Jan-18 21:45 42.375626 -122.879393 238 1306ft 8kts
09-Jan-18 21:46 42.375984 -122.879717 24 1306ft 0kts
09-Jan-18 21:47 42.375984 -122.879717 24 1306ft 0kts
09-Jan-18 21:48 42.375983 -122.879717 24 1306ft 0kts
09-Jan-18 21:49 42.375983 -122.879717 24 1306ft 0kts
09-Jan-18 21:50 42.375983 -122.879717 24 1306ft 0kts
09-Jan-18 21:51 42.375983 -122.879717 24 1306ft 0kts
09-Jan-18 21:52 42.375983 -122.879717 24 1306ft 0kts
09-Jan-18 21:53 42.375983 -122.879717 24 1306ft 0kts
09-Jan-18 21:54 42.375983 -122.879717 24 1306ft 0kts
09-Jan-18 21:55 42.375983 -122.879717 24 1306ft 0kts

Navigation Log

Ident Type
Flight plan parsing failed, navigation log unavailable